This is the latest recevied weather packets stored in our database for station/object TAPIOLA. If no packets are shown the sender has not sent any weather packets the latest 10 day(s).
| Time | Temp. | Humidity | Pressure | Rain* | Wind** | Luminosity | Snow |
|---|---|---|---|---|---|---|---|
| 1777555613 | 11.67° C | 66% | 1020.1 hPa | 0 mm | - | - | - |
| 1777554413 | 11.67° C | 66% | 1020.2 hPa | 0 mm | - | - | - |
| 1777553213 | 13.33° C | 58% | 1020.4 hPa | 0 mm | - | - | - |
| 1777552013 | 15° C | 54% | 1020.4 hPa | 0 mm | - | - | - |
| 1777550813 | 13.33° C | 56% | 1020.7 hPa | 0 mm | - | - | - |
| 1777549613 | 13.33° C | 56% | 1020.5 hPa | 0 mm | - | - | - |
| 1777548413 | 13.33° C | 56% | 1020.7 hPa | 0 mm | - | - | - |
| 1777547212 | 12.78° C | 57% | 1020.7 hPa | 0 mm | - | - | - |
| 1777546013 | 13.33° C | 56% | 1020.8 hPa | 0 mm | - | - | - |
| 1777544813 | 12.78° C | 58% | 1021 hPa | 0 mm | - | - | - |
| 1777543613 | 11.67° C | 62% | 1021 hPa | 0 mm | - | - | - |
| 1777542412 | 11.67° C | 64% | 1021.1 hPa | 0 mm | - | - | - |
| 1777541213 | 11.11° C | 66% | 1021.2 hPa | 0 mm | - | - | - |
| 1777540012 | 10° C | 70% | 1021.3 hPa | 0 mm | - | - | - |
| 1777538812 | 9.44° C | 74% | 1021.5 hPa | 0 mm | - | - | - |
| 1777537612 | 8.33° C | 78% | 1021.6 hPa | 0 mm | - | - | - |
| 1777536412 | 7.78° C | 80% | 1021.8 hPa | 0 mm | - | - | - |
| 1777535213 | 7.78° C | 76% | 1021.7 hPa | 0 mm | - | - | - |
| 1777534012 | 7.22° C | 75% | 1021.8 hPa | 0 mm | - | - | - |
| 1777532812 | 7.22° C | 73% | 1021.8 hPa | 0 mm | - | - | - |
| 1777531612 | 6.67° C | 72% | 1021.7 hPa | 0 mm | - | - | - |
| 1777530412 | 6.67° C | 71% | 1021.6 hPa | 0 mm | - | - | - |
| 1777529212 | 5.56° C | 72% | 1021.7 hPa | 0 mm | - | - | - |
| 1777528012 | 5° C | 72% | 1022 hPa | 0 mm | - | - | - |
| 1777526811 | 5° C | 71% | 1022.2 hPa | 0 mm | - | - | - |
* Rain latest hour (hover to see other rain measurements)
** Current wind speed in m/s (hover to see current wind gust speed)